createdAt,value
2018-09-26T00:00:38.593Z,80.50
2018-09-26T00:04:12.287Z,80.60
2018-09-26T00:06:40.926Z,80.70
2018-09-26T00:09:11.688Z,80.60
2018-09-26T00:11:40.355Z,80.70
2018-09-26T00:14:09.429Z,80.90
2018-09-26T00:16:38.765Z,81.00
2018-09-26T00:19:07.319Z,81.20
2018-09-26T00:21:35.922Z,81.20
2018-09-26T00:24:04.468Z,81.40
2018-09-26T00:26:33.013Z,81.60
2018-09-26T00:29:01.621Z,81.90
2018-09-26T00:31:30.281Z,81.90
2018-09-26T00:33:58.947Z,82.00
2018-09-26T00:36:27.559Z,82.10
2018-09-26T00:38:56.142Z,82.20
2018-09-26T00:41:24.758Z,82.10
2018-09-26T00:43:53.292Z,82.10
2018-09-26T00:46:21.898Z,82.20
2018-09-26T00:48:50.465Z,82.20
2018-09-26T00:51:19.076Z,82.40
2018-09-26T00:53:48.368Z,82.60
2018-09-26T00:56:17.600Z,82.80
2018-09-26T00:58:46.320Z,82.90
2018-09-26T01:01:14.953Z,83.00
2018-09-26T01:03:43.569Z,83.00
2018-09-26T01:06:12.150Z,82.80
2018-09-26T01:08:40.753Z,82.80
2018-09-26T01:11:09.555Z,82.80
2018-09-26T01:13:38.174Z,82.80
2018-09-26T01:16:07.842Z,82.70
2018-09-26T01:18:36.438Z,82.80
2018-09-26T01:21:05.043Z,82.90
2018-09-26T01:23:33.699Z,82.90
2018-09-26T01:26:02.291Z,82.90
2018-09-26T01:28:30.936Z,83.00
2018-09-26T01:30:59.460Z,83.10
2018-09-26T01:33:28.216Z,83.20
2018-09-26T01:35:56.849Z,83.30
2018-09-26T01:38:25.442Z,83.30
2018-09-26T01:40:54.074Z,83.40
2018-09-26T01:43:22.754Z,83.40
2018-09-26T01:45:51.314Z,83.50
2018-09-26T01:48:19.907Z,83.50
2018-09-26T01:50:48.585Z,83.60
2018-09-26T01:53:17.274Z,83.60
2018-09-26T01:55:45.833Z,83.60
2018-09-26T01:58:14.446Z,83.70
2018-09-26T02:00:43.083Z,83.70
2018-09-26T02:03:11.686Z,83.80
2018-09-26T02:05:40.243Z,83.80
2018-09-26T02:08:08.878Z,83.90
2018-09-26T02:10:37.456Z,83.90
2018-09-26T02:13:06.448Z,83.90
2018-09-26T02:15:35.047Z,84.00
2018-09-26T02:18:03.732Z,84.20
2018-09-26T02:20:32.360Z,84.30
2018-09-26T02:23:01.021Z,84.60
2018-09-26T02:25:29.579Z,84.70
2018-09-26T02:27:58.203Z,84.70
2018-09-26T02:30:26.775Z,84.80
2018-09-26T02:32:55.377Z,84.80
2018-09-26T02:35:23.977Z,84.90
2018-09-26T02:37:52.836Z,84.90
2018-09-26T02:40:21.447Z,84.90
2018-09-26T02:42:49.977Z,85.00
2018-09-26T02:45:18.527Z,85.00
2018-09-26T02:47:47.098Z,85.10
2018-09-26T02:50:15.683Z,85.20
2018-09-26T02:52:44.234Z,85.80
2018-09-26T02:55:12.760Z,85.30
2018-09-26T02:57:41.332Z,85.50
2018-09-26T03:00:10.319Z,85.50
2018-09-26T03:02:38.936Z,85.50
2018-09-26T03:05:07.582Z,85.50
2018-09-26T03:07:36.311Z,85.50
2018-09-26T03:10:04.946Z,85.50
2018-09-26T03:12:33.529Z,85.50
2018-09-26T03:15:02.161Z,85.70
2018-09-26T03:17:30.901Z,85.70
2018-09-26T03:19:59.461Z,85.90
2018-09-26T03:22:28.047Z,86.00
2018-09-26T03:24:56.568Z,86.10
2018-09-26T03:27:25.214Z,86.20
2018-09-26T03:29:53.755Z,86.20
2018-09-26T03:32:22.353Z,86.30
2018-09-26T03:34:50.933Z,86.30
2018-09-26T03:37:19.537Z,86.30
2018-09-26T03:39:48.100Z,86.30
2018-09-26T03:42:16.653Z,86.30
2018-09-26T03:44:45.181Z,86.30
2018-09-26T03:47:13.815Z,86.40
2018-09-26T03:49:42.449Z,87.00
2018-09-26T03:52:10.982Z,86.60
2018-09-26T03:54:39.570Z,86.70
2018-09-26T03:57:08.341Z,86.80
2018-09-26T03:59:36.933Z,86.90
2018-09-26T04:02:05.640Z,86.90
2018-09-26T04:04:35.042Z,87.00
2018-09-26T04:07:03.630Z,87.20
2018-09-26T04:09:32.395Z,87.10
2018-09-26T04:12:01.029Z,87.20
2018-09-26T04:14:29.657Z,87.40
2018-09-26T04:16:58.269Z,87.30
2018-09-26T04:19:26.941Z,87.40
2018-09-26T04:21:55.660Z,87.30
2018-09-26T04:24:24.264Z,87.30
2018-09-26T04:26:53.065Z,87.00
2018-09-26T04:29:21.575Z,87.30
2018-09-26T04:31:50.190Z,87.40
2018-09-26T04:34:18.806Z,87.40
2018-09-26T04:36:48.298Z,88.10
2018-09-26T04:39:17.053Z,87.40
2018-09-26T04:41:45.723Z,87.40
2018-09-26T04:44:14.455Z,87.50
2018-09-26T04:46:43.161Z,87.50
2018-09-26T04:49:11.775Z,87.60
2018-09-26T04:51:40.431Z,87.70
2018-09-26T04:54:08.989Z,87.80
2018-09-26T04:56:37.684Z,88.80
2018-09-26T04:59:06.574Z,87.90
2018-09-26T05:01:35.213Z,88.00
2018-09-26T05:04:03.905Z,88.10
2018-09-26T05:06:32.538Z,88.20
2018-09-26T05:09:01.114Z,88.20
2018-09-26T05:11:29.764Z,88.30
2018-09-26T05:13:58.965Z,88.30
2018-09-26T05:16:27.579Z,88.40
2018-09-26T05:18:56.278Z,88.40
2018-09-26T05:21:24.940Z,88.50
2018-09-26T05:23:53.764Z,88.50
2018-09-26T05:26:22.403Z,88.50
2018-09-26T05:28:51.030Z,88.50
2018-09-26T05:31:19.636Z,88.70
2018-09-26T05:33:48.306Z,88.70
2018-09-26T05:36:16.966Z,88.70
2018-09-26T05:38:45.569Z,89.30
2018-09-26T05:41:14.194Z,88.80
2018-09-26T05:43:42.780Z,88.90
2018-09-26T05:46:11.443Z,89.00
2018-09-26T05:48:39.979Z,89.10
2018-09-26T05:51:08.564Z,89.20
2018-09-26T05:53:37.138Z,89.50
2018-09-26T05:56:05.654Z,89.70
2018-09-26T05:58:34.231Z,89.80
2018-09-26T06:01:03.582Z,90.00
2018-09-26T06:03:33.133Z,90.00
2018-09-26T06:06:02.037Z,90.10
2018-09-26T06:08:30.657Z,90.20
2018-09-26T06:10:59.246Z,90.20
2018-09-26T06:13:27.838Z,90.30
2018-09-26T06:15:56.461Z,90.40
2018-09-26T06:18:25.532Z,90.40
2018-09-26T06:20:54.195Z,90.50
2018-09-26T06:23:23.025Z,90.60
2018-09-26T06:25:51.687Z,90.60
2018-09-26T06:28:20.381Z,90.70
2018-09-26T06:30:48.979Z,90.80
2018-09-26T06:33:17.532Z,90.80
2018-09-26T06:35:46.249Z,91.00
2018-09-26T06:38:15.547Z,91.10
2018-09-26T06:40:44.166Z,91.20
2018-09-26T06:43:12.833Z,91.30
2018-09-26T06:45:41.458Z,91.40
2018-09-26T06:48:10.035Z,91.50
2018-09-26T06:50:38.649Z,91.50
2018-09-26T06:53:07.288Z,91.50
2018-09-26T06:55:35.858Z,91.60
2018-09-26T06:58:04.407Z,91.70
2018-09-26T07:00:33.083Z,91.90
2018-09-26T07:03:01.657Z,92.70
2018-09-26T07:05:30.323Z,93.90
2018-09-26T07:07:59.005Z,94.90
2018-09-26T07:10:27.624Z,95.40
2018-09-26T07:12:56.324Z,95.50
2018-09-26T07:15:24.926Z,95.00
2018-09-26T07:17:53.544Z,96.00
2018-09-26T07:20:22.717Z,96.40
2018-09-26T07:22:51.326Z,96.00
2018-09-26T07:25:20.069Z,95.80
2018-09-26T07:27:48.652Z,93.50
2018-09-26T07:30:17.445Z,92.60
2018-09-26T07:32:46.049Z,92.10
2018-09-26T07:35:14.663Z,91.80
2018-09-26T07:37:43.231Z,91.80
2018-09-26T07:40:11.815Z,91.50
2018-09-26T07:42:40.481Z,91.70
2018-09-26T07:45:09.245Z,91.90
2018-09-26T07:47:37.908Z,93.30
2018-09-26T07:50:06.653Z,93.80
2018-09-26T07:52:35.238Z,93.00
2018-09-26T07:55:03.997Z,93.80
2018-09-26T07:57:32.816Z,92.60
2018-09-26T08:00:01.566Z,91.70
2018-09-26T08:02:30.284Z,91.70
2018-09-26T08:04:58.946Z,92.00
2018-09-26T08:07:27.661Z,91.60
2018-09-26T08:09:56.300Z,91.60
2018-09-26T08:12:24.897Z,91.70
2018-09-26T08:14:53.489Z,91.50
2018-09-26T08:17:22.171Z,91.60
2018-09-26T08:19:50.746Z,91.60
2018-09-26T08:22:19.424Z,92.00
2018-09-26T08:24:48.078Z,92.10
2018-09-26T08:27:16.736Z,92.30
2018-09-26T08:29:45.415Z,92.00
2018-09-26T08:32:14.011Z,91.70
2018-09-26T08:34:42.700Z,91.50
2018-09-26T08:37:11.768Z,91.80
2018-09-26T08:39:40.486Z,91.80
2018-09-26T08:42:09.115Z,91.60
2018-09-26T08:44:38.611Z,91.40
2018-09-26T08:47:07.786Z,91.40
2018-09-26T08:49:36.464Z,91.70
2018-09-26T08:52:05.255Z,91.50
2018-09-26T08:54:33.846Z,91.40
2018-09-26T08:57:02.562Z,91.40
2018-09-26T08:59:31.270Z,91.50
2018-09-26T09:02:00.001Z,91.50
2018-09-26T09:04:28.792Z,91.50
2018-09-26T09:06:57.838Z,92.20
2018-09-26T09:09:26.788Z,91.80
2018-09-26T09:11:55.610Z,91.60
2018-09-26T09:14:24.374Z,91.60
2018-09-26T09:16:52.862Z,91.50
2018-09-26T09:19:21.498Z,91.40
2018-09-26T09:21:50.343Z,91.40
2018-09-26T09:24:19.231Z,91.60
2018-09-26T09:26:48.355Z,92.10
2018-09-26T09:29:17.122Z,91.70
2018-09-26T09:31:45.867Z,91.70
2018-09-26T09:34:14.517Z,91.80
2018-09-26T09:36:43.165Z,92.10
2018-09-26T09:39:11.772Z,93.50
2018-09-26T09:41:40.484Z,94.10
2018-09-26T09:44:09.144Z,93.60
2018-09-26T09:46:37.806Z,93.40
2018-09-26T09:49:06.799Z,92.90
2018-09-26T09:51:35.413Z,92.50
2018-09-26T09:54:03.984Z,93.10
2018-09-26T09:56:32.586Z,93.40
2018-09-26T09:59:01.430Z,96.00
2018-09-26T10:01:30.230Z,99.90
2018-09-26T10:04:00.262Z,99.90
2018-09-26T10:06:29.676Z,99.90
2018-09-26T10:08:58.842Z,99.90
2018-09-26T10:11:27.984Z,97.90
2018-09-26T10:13:57.163Z,95.50
2018-09-26T10:16:25.744Z,94.80
2018-09-26T10:18:54.535Z,94.20
2018-09-26T10:21:23.370Z,93.80
2018-09-26T10:23:52.237Z,92.70
2018-09-26T10:26:21.031Z,87.90
2018-09-26T10:28:49.683Z,90.00
2018-09-26T10:31:18.372Z,83.40
2018-09-26T10:33:46.871Z,80.20
2018-09-26T10:36:15.436Z,78.40
2018-09-26T10:38:44.052Z,78.50
2018-09-26T10:41:12.723Z,76.80
2018-09-26T10:43:41.325Z,77.90
2018-09-26T10:46:09.938Z,75.60
2018-09-26T10:48:38.539Z,74.40
2018-09-26T10:51:07.257Z,74.40
2018-09-26T10:53:36.225Z,74.20
2018-09-26T10:56:05.030Z,74.50
2018-09-26T10:58:33.888Z,75.40
2018-09-26T11:01:02.687Z,75.30
2018-09-26T11:03:31.357Z,75.90
2018-09-26T11:05:59.970Z,77.50
2018-09-26T11:08:28.537Z,75.70
2018-09-26T11:10:57.075Z,74.30
2018-09-26T11:13:25.752Z,73.70
2018-09-26T11:15:54.558Z,74.10
2018-09-26T11:18:23.438Z,74.40
2018-09-26T11:20:52.099Z,74.30
2018-09-26T11:23:20.663Z,75.70
2018-09-26T11:25:49.197Z,77.10
2018-09-26T11:28:17.716Z,81.30
2018-09-26T11:30:46.360Z,84.30
2018-09-26T11:33:15.098Z,85.90
2018-09-26T11:35:43.727Z,88.50
2018-09-26T11:38:12.449Z,89.70
2018-09-26T11:40:41.036Z,84.00
2018-09-26T11:43:09.595Z,77.30
2018-09-26T11:45:38.174Z,72.00
2018-09-26T11:48:06.700Z,72.30
2018-09-26T11:50:35.260Z,76.30
2018-09-26T11:53:03.824Z,75.80
2018-09-26T11:55:32.368Z,78.90
2018-09-26T11:58:00.865Z,82.80
2018-09-26T12:00:29.407Z,85.10
2018-09-26T12:02:58.226Z,82.00
2018-09-26T12:05:27.021Z,79.10
2018-09-26T12:07:55.592Z,77.00
2018-09-26T12:10:24.248Z,77.40
2018-09-26T12:12:52.776Z,75.20
2018-09-26T12:15:21.440Z,75.00
2018-09-26T12:17:50.015Z,72.00
2018-09-26T12:20:18.613Z,69.10
2018-09-26T12:22:47.317Z,66.70
2018-09-26T12:25:15.880Z,64.90
2018-09-26T12:27:44.412Z,64.20
2018-09-26T12:30:12.959Z,61.70
2018-09-26T12:32:41.497Z,60.30
2018-09-26T12:35:10.146Z,60.30
2018-09-26T12:37:38.730Z,59.70
2018-09-26T12:40:07.960Z,57.50
2018-09-26T12:42:36.592Z,56.10
2018-09-26T12:45:05.107Z,55.50
2018-09-26T12:47:33.642Z,54.30
2018-09-26T12:50:02.264Z,52.50
2018-09-26T12:52:30.789Z,51.50
2018-09-26T12:54:59.435Z,51.20
2018-09-26T12:57:28.289Z,50.60
2018-09-26T12:59:56.911Z,48.70
2018-09-26T13:02:25.668Z,48.00
2018-09-26T13:04:54.237Z,47.30
2018-09-26T13:07:22.776Z,47.50
2018-09-26T13:09:51.267Z,47.80
2018-09-26T13:12:21.524Z,45.00
2018-09-26T13:14:50.172Z,44.70
2018-09-26T13:17:18.889Z,45.30
2018-09-26T13:19:47.511Z,44.60
2018-09-26T13:22:16.211Z,44.50
2018-09-26T13:24:44.759Z,43.30
2018-09-26T13:27:19.816Z,42.30
2018-09-26T13:29:50.686Z,42.70
2018-09-26T13:32:19.341Z,42.30
2018-09-26T13:34:47.998Z,41.30
2018-09-26T13:37:19.030Z,41.40
2018-09-26T13:39:47.713Z,40.70
2018-09-26T13:42:16.317Z,40.60
2018-09-26T13:44:44.842Z,40.90
2018-09-26T13:47:13.417Z,40.40
2018-09-26T13:49:42.205Z,39.70
2018-09-26T13:52:10.846Z,39.40
2018-09-26T13:54:39.349Z,38.90
2018-09-26T13:57:07.988Z,39.00
2018-09-26T13:59:36.714Z,38.80
2018-09-26T14:02:05.855Z,37.90
2018-09-26T14:04:34.421Z,38.10
2018-09-26T14:07:03.002Z,37.80
2018-09-26T14:09:31.818Z,37.40
2018-09-26T14:12:00.507Z,37.50
2018-09-26T14:14:29.108Z,37.80
2018-09-26T14:16:57.713Z,37.30
2018-09-26T14:19:26.361Z,37.10
2018-09-26T14:21:54.907Z,36.60
2018-09-26T14:24:23.505Z,36.60
2018-09-26T14:26:52.133Z,36.00
2018-09-26T14:29:20.895Z,36.20
2018-09-26T14:31:49.523Z,36.00
2018-09-26T14:34:18.133Z,35.90
2018-09-26T14:36:46.676Z,36.30
2018-09-26T14:39:15.281Z,36.10
2018-09-26T14:41:43.780Z,36.10
2018-09-26T14:44:12.452Z,35.80
2018-09-26T14:46:41.053Z,36.20
2018-09-26T14:49:09.663Z,35.80
2018-09-26T14:51:38.217Z,35.50
2018-09-26T14:54:06.780Z,35.40
2018-09-26T14:56:35.299Z,35.70
2018-09-26T14:59:03.841Z,35.70
2018-09-26T15:01:33.260Z,36.00
2018-09-26T15:04:01.933Z,35.90
2018-09-26T15:06:30.497Z,36.60
2018-09-26T15:08:59.027Z,36.20
2018-09-26T15:11:27.766Z,36.10
2018-09-26T15:13:56.296Z,36.20
2018-09-26T15:16:24.821Z,36.00
2018-09-26T15:18:53.375Z,35.90
2018-09-26T15:21:21.995Z,36.10
2018-09-26T15:23:50.606Z,36.00
2018-09-26T15:26:19.283Z,35.90
2018-09-26T15:28:48.638Z,36.20
2018-09-26T15:31:17.234Z,36.10
2018-09-26T15:33:45.763Z,36.20
2018-09-26T15:36:14.636Z,36.30
2018-09-26T15:38:43.138Z,36.80
2018-09-26T15:41:11.700Z,36.30
2018-09-26T15:43:40.304Z,36.80
2018-09-26T15:46:09.064Z,36.40
2018-09-26T15:48:37.706Z,36.50
2018-09-26T15:51:06.463Z,36.40
2018-09-26T15:53:35.035Z,36.50
2018-09-26T15:56:03.897Z,36.60
2018-09-26T15:58:32.535Z,36.70
2018-09-26T16:01:01.818Z,36.80
2018-09-26T16:03:30.552Z,37.00
2018-09-26T16:05:59.117Z,37.10
2018-09-26T16:08:27.775Z,37.20
2018-09-26T16:10:56.563Z,37.20
2018-09-26T16:13:25.306Z,37.90
2018-09-26T16:15:53.857Z,37.60
2018-09-26T16:18:22.815Z,37.80
2018-09-26T16:20:51.354Z,38.00
2018-09-26T16:23:20.697Z,38.20
2018-09-26T16:25:49.283Z,39.00
2018-09-26T16:28:18.662Z,38.60
2018-09-26T16:30:47.259Z,38.70
2018-09-26T16:33:16.294Z,38.80
2018-09-26T16:35:44.841Z,39.00
2018-09-26T16:38:13.821Z,39.10
2018-09-26T16:40:42.528Z,39.30
2018-09-26T16:43:11.250Z,39.50
2018-09-26T16:45:39.862Z,39.80
2018-09-26T16:48:08.474Z,39.80
2018-09-26T16:50:37.319Z,40.00
2018-09-26T16:53:05.961Z,40.20
2018-09-26T16:55:34.697Z,40.30
2018-09-26T16:58:03.297Z,40.60
2018-09-26T17:00:31.887Z,40.70
2018-09-26T17:03:00.505Z,40.80
2018-09-26T17:05:29.676Z,40.90
2018-09-26T17:07:58.361Z,41.10
2018-09-26T17:10:26.980Z,41.10
2018-09-26T17:12:55.508Z,41.30
2018-09-26T17:15:24.072Z,41.60
2018-09-26T17:17:52.655Z,41.70
2018-09-26T17:20:21.181Z,41.70
2018-09-26T17:22:49.742Z,41.90
2018-09-26T17:25:18.336Z,42.00
2018-09-26T17:27:46.961Z,42.00
2018-09-26T17:30:15.652Z,42.20
2018-09-26T17:32:44.199Z,42.30
2018-09-26T17:35:12.793Z,42.40
2018-09-26T17:37:41.442Z,42.60
2018-09-26T17:40:10.868Z,42.70
2018-09-26T17:42:40.194Z,42.90
2018-09-26T17:45:09.596Z,42.90
2018-09-26T17:47:38.386Z,43.10
2018-09-26T17:50:07.279Z,43.20
2018-09-26T17:52:35.957Z,43.40
2018-09-26T17:55:04.655Z,43.40
2018-09-26T17:57:33.223Z,43.60
2018-09-26T18:00:01.804Z,43.80
2018-09-26T18:02:31.110Z,43.90
2018-09-26T18:04:59.677Z,44.00
2018-09-26T18:07:28.261Z,44.10
2018-09-26T18:09:56.788Z,44.20
2018-09-26T18:12:25.541Z,44.40
2018-09-26T18:14:54.109Z,44.60
2018-09-26T18:17:22.909Z,45.30
2018-09-26T18:19:51.439Z,44.90
2018-09-26T18:22:19.993Z,45.00
2018-09-26T18:24:48.519Z,45.00
2018-09-26T18:27:17.166Z,45.20
2018-09-26T18:29:45.771Z,45.30
2018-09-26T18:32:14.525Z,45.40
2018-09-26T18:34:43.085Z,45.70
2018-09-26T18:37:11.695Z,45.80
2018-09-26T18:39:40.334Z,45.90
2018-09-26T18:42:08.987Z,46.10
2018-09-26T18:44:37.660Z,46.20
2018-09-26T18:47:06.231Z,46.40
2018-09-26T18:49:34.922Z,46.60
2018-09-26T18:52:03.605Z,46.60
2018-09-26T18:54:32.260Z,46.80
2018-09-26T18:57:00.935Z,46.90
2018-09-26T18:59:29.492Z,47.10
2018-09-26T19:01:58.111Z,47.30
2018-09-26T19:04:26.774Z,47.40
2018-09-26T19:06:55.353Z,47.50
2018-09-26T19:09:24.999Z,47.60
2018-09-26T19:11:53.561Z,47.80
2018-09-26T19:14:22.188Z,48.00
2018-09-26T19:16:50.762Z,48.10
2018-09-26T19:19:19.429Z,48.20
2018-09-26T19:21:48.030Z,48.30
2018-09-26T19:24:16.791Z,48.50
2018-09-26T19:26:45.326Z,48.60
2018-09-26T19:29:13.822Z,48.70
2018-09-26T19:31:42.533Z,48.80
2018-09-26T19:34:11.124Z,49.00
2018-09-26T19:36:39.726Z,49.10
2018-09-26T19:39:09.549Z,49.20
2018-09-26T19:41:38.293Z,49.40
2018-09-26T19:44:06.945Z,49.60
2018-09-26T19:46:35.570Z,49.70
2018-09-26T19:49:04.142Z,49.90
2018-09-26T19:51:32.826Z,50.20
2018-09-26T19:54:01.407Z,50.30
2018-09-26T19:56:30.097Z,50.50
2018-09-26T19:58:58.649Z,50.60
2018-09-26T20:01:27.174Z,50.80
2018-09-26T20:03:56.560Z,50.90
2018-09-26T20:06:25.148Z,51.10
2018-09-26T20:08:54.622Z,51.30
2018-09-26T20:11:23.231Z,51.50
2018-09-26T20:13:51.815Z,51.60
2018-09-26T20:16:20.387Z,51.80
2018-09-26T20:18:48.999Z,51.90
2018-09-26T20:21:17.567Z,52.10
2018-09-26T20:23:46.398Z,52.20
2018-09-26T20:26:15.123Z,52.40
2018-09-26T20:28:43.894Z,52.50
2018-09-26T20:31:13.207Z,52.60
2018-09-26T20:33:41.884Z,52.80
2018-09-26T20:36:11.176Z,52.90
2018-09-26T20:38:39.844Z,53.10
2018-09-26T20:41:08.819Z,53.20
2018-09-26T20:43:37.885Z,53.40
2018-09-26T20:46:06.652Z,53.50
2018-09-26T20:48:35.260Z,53.70
2018-09-26T20:51:03.965Z,54.00
2018-09-26T20:53:32.488Z,53.90
2018-09-26T20:56:01.245Z,54.10
2018-09-26T20:58:29.977Z,54.30
2018-09-26T21:00:58.868Z,54.50
2018-09-26T21:03:27.636Z,54.50
2018-09-26T21:05:56.312Z,54.70
2018-09-26T21:08:24.977Z,54.90
2018-09-26T21:10:53.589Z,55.10
2018-09-26T21:13:22.260Z,55.20
2018-09-26T21:15:50.866Z,55.30
2018-09-26T21:18:19.440Z,55.40
2018-09-26T21:20:48.093Z,55.50
2018-09-26T21:23:17.053Z,55.60
2018-09-26T21:25:45.794Z,55.80
2018-09-26T21:28:14.407Z,55.90
2018-09-26T21:30:43.097Z,56.10
2018-09-26T21:33:11.830Z,56.20
2018-09-26T21:35:41.320Z,56.40
2018-09-26T21:38:09.995Z,56.60
2018-09-26T21:40:38.703Z,56.80
2018-09-26T21:43:07.939Z,57.00
2018-09-26T21:45:43.208Z,57.10
2018-09-26T21:48:11.743Z,57.30
2018-09-26T21:50:40.319Z,57.40
2018-09-26T21:53:08.956Z,57.50
2018-09-26T21:55:37.467Z,57.70
2018-09-26T21:58:06.000Z,57.90
2018-09-26T22:00:34.556Z,58.20
2018-09-26T22:03:03.003Z,58.10
2018-09-26T22:05:31.496Z,58.30
2018-09-26T22:07:59.967Z,58.50
2018-09-26T22:10:28.568Z,58.70
2018-09-26T22:12:56.996Z,58.80
2018-09-26T22:15:25.549Z,59.10
2018-09-26T22:17:54.809Z,59.20
2018-09-26T22:20:23.311Z,59.30
2018-09-26T22:22:51.784Z,59.50
2018-09-26T22:25:20.300Z,59.90
2018-09-26T22:27:48.922Z,59.70
2018-09-26T22:30:17.438Z,59.80
2018-09-26T22:32:45.881Z,60.00
2018-09-26T22:35:14.418Z,60.10
2018-09-26T22:37:42.886Z,60.40
2018-09-26T22:40:11.416Z,60.50
2018-09-26T22:42:39.996Z,60.80
2018-09-26T22:45:08.520Z,60.90
2018-09-26T22:47:37.090Z,61.10
2018-09-26T22:50:05.660Z,61.40
2018-09-26T22:52:34.234Z,61.40
2018-09-26T22:55:02.672Z,61.60
2018-09-26T22:57:31.776Z,61.70
2018-09-26T23:00:00.204Z,61.90
2018-09-26T23:02:28.772Z,62.20
2018-09-26T23:04:57.244Z,62.40
2018-09-26T23:07:25.716Z,62.60
2018-09-26T23:09:54.236Z,62.90
2018-09-26T23:12:22.724Z,63.00
2018-09-26T23:14:51.340Z,63.30
2018-09-26T23:17:19.826Z,63.50
2018-09-26T23:19:48.262Z,63.70
2018-09-26T23:22:16.792Z,63.80
2018-09-26T23:24:45.367Z,63.90
2018-09-26T23:27:13.959Z,64.10
2018-09-26T23:29:43.031Z,64.40
2018-09-26T23:32:12.272Z,64.60
2018-09-26T23:34:41.461Z,64.80
2018-09-26T23:37:10.048Z,65.00
2018-09-26T23:39:39.407Z,65.30
2018-09-26T23:42:08.195Z,65.50
2018-09-26T23:44:36.735Z,65.60
2018-09-26T23:47:05.301Z,65.80
2018-09-26T23:49:34.293Z,65.80
2018-09-26T23:52:02.827Z,66.00
2018-09-26T23:54:31.381Z,66.30
2018-09-26T23:57:00.614Z,66.60
2018-09-26T23:59:29.149Z,67.20
